Time;durP1;ratioP1;P1;durP2;ratioP2;P2;SDS_P1;SDS_P2;PMS_P1;PMS_P2;Temp;Humidity;BMP_temperature;BMP_pressure;BME280_temperature;BME280_humidity;BME280_pressure;Samples;Min_cycle;Max_cycle;Signal;HPM_P1;HPM_P2
2023/05/30 00:00:13;;;;;;;10.60;10.30;;;16.60;99.90;;;;;;5044555;28;20314;-86
2023/05/30 00:02:42;;;;;;;10.70;10.40;;;16.60;99.90;;;;;;5043771;28;20231;-85
2023/05/30 00:05:12;;;;;;;10.57;10.27;;;16.50;99.90;;;;;;5044125;28;20232;-86
2023/05/30 00:07:39;;;;;;;10.45;10.15;;;16.50;99.90;;;;;;5044425;28;20223;-86
2023/05/30 00:10:08;;;;;;;10.40;10.10;;;16.50;99.90;;;;;;5044175;28;20289;-85
2023/05/30 00:13:00;;;;;;;10.40;10.10;;;16.50;99.90;;;;;;5043756;28;20322;-86
2023/05/30 00:15:28;;;;;;;10.48;10.18;;;16.50;99.90;;;;;;5043195;28;20220;-86
2023/05/30 00:17:57;;;;;;;10.25;9.95;;;16.40;99.90;;;;;;5043197;28;20243;-86
2023/05/30 00:20:29;;;;;;;10.50;10.20;;;16.40;99.90;;;;;;5043771;28;20287;-86
2023/05/30 00:23:03;;;;;;;10.32;10.02;;;16.30;99.90;;;;;;5043138;28;20231;-85
2023/05/30 00:25:33;;;;;;;10.25;9.95;;;16.30;99.90;;;;;;5043745;28;20726;-85
2023/05/30 00:28:14;;;;;;;10.32;10.02;;;16.30;99.90;;;;;;5043742;28;20232;-86
2023/05/30 00:30:42;;;;;;;10.45;10.15;;;16.30;99.90;;;;;;5043622;28;20258;-85
2023/05/30 00:33:12;;;;;;;10.60;10.30;;;16.30;99.90;;;;;;5043091;28;20239;-86
2023/05/30 00:35:40;;;;;;;10.27;9.98;;;16.30;99.90;;;;;;5043706;28;20231;-86
2023/05/30 00:38:10;;;;;;;10.30;10.00;;;16.30;99.90;;;;;;5043535;28;20270;-86
2023/05/30 00:40:39;;;;;;;10.20;9.90;;;16.20;99.90;;;;;;5042689;28;20804;-85
2023/05/30 00:43:18;;;;;;;10.15;9.85;;;16.20;99.90;;;;;;5042855;28;20242;-86
2023/05/30 00:45:46;;;;;;;10.48;10.18;;;16.30;99.90;;;;;;5042594;28;20219;-85
2023/05/30 00:48:15;;;;;;;10.23;9.93;;;16.20;99.90;;;;;;5042652;28;20223;-86
2023/05/30 00:50:45;;;;;;;10.30;10.00;;;16.20;99.90;;;;;;5041966;28;20255;-85
2023/05/30 00:53:15;;;;;;;10.50;10.20;;;16.20;99.90;;;;;;5042575;28;20239;-86
2023/05/30 00:55:44;;;;;;;10.10;9.80;;;16.20;99.90;;;;;;5042708;28;20294;-86
2023/05/30 00:58:26;;;;;;;10.30;10.00;;;16.20;99.90;;;;;;5042159;28;20219;-85
2023/05/30 01:00:54;;;;;;;10.25;9.95;;;16.10;99.90;;;;;;5042441;28;20263;-85
2023/05/30 01:03:24;;;;;;;10.40;10.10;;;16.10;99.90;;;;;;5042409;28;20335;-85
2023/05/30 01:05:52;;;;;;;10.30;10.00;;;16.00;99.90;;;;;;5042584;28;20322;-86
2023/05/30 01:08:20;;;;;;;9.95;9.65;;;15.90;99.90;;;;;;5042172;28;20242;-85
2023/05/30 01:10:59;;;;;;;10.15;9.85;;;15.90;99.90;;;;;;5042855;28;20238;-86
2023/05/30 01:13:46;;;;;;;10.02;9.73;;;15.80;99.90;;;;;;5042805;28;20289;-86
2023/05/30 01:16:23;;;;;;;10.20;9.90;;;15.90;99.90;;;;;;5050422;28;20231;-85
2023/05/30 01:19:02;;;;;;;10.07;9.77;;;15.90;99.90;;;;;;5045455;28;20215;-86
2023/05/30 01:21:33;;;;;;;10.25;9.95;;;15.80;99.90;;;;;;5042357;28;20243;-86
2023/05/30 01:24:19;;;;;;;10.02;9.73;;;15.80;99.90;;;;;;5042866;28;20232;-85
2023/05/30 01:27:06;;;;;;;10.30;10.00;;;15.70;99.90;;;;;;5043263;28;20228;-86
2023/05/30 01:29:43;;;;;;;10.50;10.20;;;15.60;99.90;;;;;;5043535;28;20253;-85
2023/05/30 01:32:12;;;;;;;10.20;9.90;;;15.60;99.90;;;;;;5044000;28;20243;-86
2023/05/30 01:34:42;;;;;;;10.00;9.70;;;15.50;99.90;;;;;;5042828;28;20258;-85
2023/05/30 01:37:11;;;;;;;10.10;9.80;;;15.50;99.90;;;;;;5042968;28;20235;-85
2023/05/30 01:39:41;;;;;;;10.00;9.70;;;15.40;99.90;;;;;;5042641;28;20235;-85
2023/05/30 01:42:20;;;;;;;10.40;10.10;;;15.40;99.90;;;;;;5044284;28;20246;-85
2023/05/30 01:45:06;;;;;;;10.13;9.82;;;15.30;99.90;;;;;;5043953;28;20262;-86
2023/05/30 01:47:44;;;;;;;10.00;9.70;;;15.30;99.90;;;;;;5042890;28;20283;-85
2023/05/30 01:50:24;;;;;;;10.00;9.70;;;15.30;99.90;;;;;;5042076;28;20407;-85
2023/05/30 01:53:02;;;;;;;9.77;9.48;;;15.30;99.90;;;;;;5042563;28;20235;-86
2023/05/30 01:55:32;;;;;;;9.90;9.60;;;15.30;99.90;;;;;;5042465;28;20258;-86
2023/05/30 01:58:01;;;;;;;10.02;9.73;;;15.20;99.90;;;;;;5042381;28;20235;-85
2023/05/30 02:00:32;;;;;;;10.05;9.75;;;15.20;99.90;;;;;;5042849;28;20220;-86
2023/05/30 02:03:00;;;;;;;10.10;9.80;;;15.20;99.90;;;;;;5045675;28;20297;-86
2023/05/30 02:05:28;;;;;;;10.35;10.05;;;15.20;99.90;;;;;;5046430;28;20293;-86
2023/05/30 02:07:57;;;;;;;10.20;9.90;;;15.20;99.90;;;;;;5046260;28;20258;-85
2023/05/30 02:10:27;;;;;;;10.30;10.00;;;15.20;99.90;;;;;;5045315;28;20254;-86
2023/05/30 02:12:58;;;;;;;9.93;9.63;;;15.20;99.90;;;;;;5046053;28;20231;-86
2023/05/30 02:15:27;;;;;;;9.90;9.60;;;15.10;99.90;;;;;;5045545;28;20227;-85
2023/05/30 02:18:06;;;;;;;10.10;9.80;;;15.10;99.90;;;;;;5050829;28;20227;-84
2023/05/30 02:20:36;;;;;;;10.00;9.70;;;15.00;99.90;;;;;;5062473;28;20243;-84
2023/05/30 02:23:05;;;;;;;10.00;9.70;;;15.00;99.90;;;;;;5056862;28;20237;-85
2023/05/30 02:25:34;;;;;;;10.00;9.70;;;15.00;99.90;;;;;;5046080;28;20335;-85
2023/05/30 02:28:04;;;;;;;10.07;9.77;;;15.00;99.90;;;;;;5045523;28;20235;-85
2023/05/30 02:30:33;;;;;;;9.93;9.63;;;14.90;99.90;;;;;;5045493;28;20228;-86
2023/05/30 02:33:12;;;;;;;9.73;9.43;;;14.90;99.90;;;;;;5045205;28;20239;-86
2023/05/30 02:35:41;;;;;;;9.93;9.63;;;14.80;99.90;;;;;;5045482;28;20309;-85
2023/05/30 02:38:10;;;;;;;9.75;9.45;;;14.70;99.90;;;;;;5045102;28;20335;-86
2023/05/30 02:40:40;;;;;;;9.82;9.52;;;14.70;99.90;;;;;;5044753;28;20286;-87
2023/05/30 02:43:09;;;;;;;9.93;9.63;;;14.60;99.90;;;;;;5045174;28;20306;-86
2023/05/30 02:45:38;;;;;;;9.65;9.35;;;14.60;99.90;;;;;;5045104;28;20227;-85
2023/05/30 02:48:11;;;;;;;9.63;9.32;;;14.60;99.90;;;;;;5050179;28;20278;-85
2023/05/30 02:50:38;;;;;;;9.73;9.43;;;14.50;99.90;;;;;;5060550;28;20212;-85
2023/05/30 02:53:08;;;;;;;9.70;9.40;;;14.50;99.90;;;;;;5060274;28;20223;-85
2023/05/30 02:55:36;;;;;;;10.35;10.05;;;14.50;99.90;;;;;;5047258;28;20235;-85
2023/05/30 02:58:06;;;;;;;10.00;9.70;;;14.50;99.90;;;;;;5045722;28;20239;-85
2023/05/30 03:00:36;;;;;;;10.10;9.80;;;14.40;99.90;;;;;;5045222;28;20242;-85
2023/05/30 03:03:05;;;;;;;10.20;9.90;;;14.50;99.90;;;;;;5044903;28;20278;-85
2023/05/30 03:05:37;;;;;;;10.40;10.10;;;14.40;99.90;;;;;;5045111;28;20235;-85
2023/05/30 03:08:05;;;;;;;10.40;10.10;;;14.40;99.90;;;;;;5045142;28;20234;-85
2023/05/30 03:10:34;;;;;;;9.98;9.68;;;14.40;99.90;;;;;;5044895;28;21015;-85
2023/05/30 03:13:03;;;;;;;10.50;10.20;;;14.30;99.90;;;;;;5043823;28;20236;-85
2023/05/30 03:15:32;;;;;;;10.45;10.15;;;14.30;99.90;;;;;;5044398;28;20235;-85
2023/05/30 03:18:01;;;;;;;10.57;10.27;;;14.30;99.90;;;;;;5044398;28;20238;-85
2023/05/30 03:20:31;;;;;;;10.60;10.30;;;14.30;99.90;;;;;;5044372;28;20231;-85
2023/05/30 03:23:03;;;;;;;10.07;9.77;;;14.20;99.90;;;;;;5046052;28;20236;-85
2023/05/30 03:25:30;;;;;;;10.43;10.13;;;14.20;99.90;;;;;;5051915;28;20276;-85
2023/05/30 03:27:59;;;;;;;10.10;9.80;;;14.20;99.90;;;;;;5046644;28;20235;-85
2023/05/30 03:30:29;;;;;;;10.30;10.00;;;14.20;99.90;;;;;;5044640;28;20224;-85
2023/05/30 03:32:58;;;;;;;10.10;9.80;;;14.10;99.90;;;;;;5044048;28;20255;-86
2023/05/30 03:35:27;;;;;;;10.20;9.90;;;14.00;99.90;;;;;;5044472;28;20290;-86
2023/05/30 03:37:56;;;;;;;10.30;10.00;;;14.00;99.90;;;;;;5044220;28;20254;-86
2023/05/30 03:40:35;;;;;;;10.00;9.70;;;14.00;99.90;;;;;;5044189;28;20243;-86
2023/05/30 03:43:05;;;;;;;10.00;9.70;;;14.00;99.90;;;;;;5045664;28;20231;-86
2023/05/30 03:45:34;;;;;;;9.98;9.68;;;14.00;99.90;;;;;;5046039;28;20294;-86
2023/05/30 03:48:03;;;;;;;10.00;9.70;;;14.00;99.90;;;;;;5044288;28;20235;-86
2023/05/30 03:50:33;;;;;;;10.00;9.70;;;14.00;99.90;;;;;;5044313;28;20787;-86
2023/05/30 03:53:02;;;;;;;10.03;9.73;;;14.00;99.90;;;;;;5044297;28;20231;-86
2023/05/30 03:55:50;;;;;;;10.07;9.77;;;14.00;99.90;;;;;;5044179;28;20289;-86
2023/05/30 03:58:20;;;;;;;9.93;9.63;;;14.00;99.90;;;;;;5044139;28;20220;-86
2023/05/30 04:00:48;;;;;;;10.20;9.90;;;14.00;99.90;;;;;;5043617;28;20208;-85
2023/05/30 04:03:19;;;;;;;10.30;10.00;;;14.10;99.90;;;;;;5042968;28;20262;-86
2023/05/30 04:05:48;;;;;;;10.43;10.13;;;14.10;99.90;;;;;;5043278;28;20260;-86
2023/05/30 04:08:16;;;;;;;10.10;9.80;;;14.10;99.90;;;;;;5043707;28;20270;-86
2023/05/30 04:10:54;;;;;;;10.10;9.80;;;14.10;99.90;;;;;;5043831;28;20243;-86
2023/05/30 04:13:26;;;;;;;9.90;9.60;;;14.10;99.90;;;;;;5051628;28;20295;-84
2023/05/30 04:15:55;;;;;;;10.37;10.07;;;14.20;99.90;;;;;;5060948;28;20216;-85
2023/05/30 04:18:25;;;;;;;10.30;10.00;;;14.20;99.90;;;;;;5043143;28;20265;-86
2023/05/30 04:20:54;;;;;;;10.20;9.90;;;14.20;99.90;;;;;;5043250;28;20232;-86
2023/05/30 04:23:24;;;;;;;10.10;9.80;;;14.30;99.90;;;;;;5043019;28;20243;-86
2023/05/30 04:26:03;;;;;;;10.40;10.10;;;14.30;99.90;;;;;;5042353;28;20278;-86
2023/05/30 04:28:31;;;;;;;10.07;9.77;;;14.30;99.90;;;;;;5043099;28;20326;-86
2023/05/30 04:31:01;;;;;;;10.38;10.07;;;14.30;99.90;;;;;;5043624;28;20239;-87
2023/05/30 04:33:34;;;;;;;10.23;9.93;;;14.30;99.90;;;;;;5043245;28;20314;-86
2023/05/30 04:36:18;;;;;;;10.40;10.10;;;14.40;99.90;;;;;;5043261;28;20232;-86
2023/05/30 04:38:47;;;;;;;10.45;10.15;;;14.40;99.90;;;;;;5043288;28;20223;-86
2023/05/30 04:41:26;;;;;;;10.20;9.90;;;14.40;99.90;;;;;;5043024;28;20238;-86
2023/05/30 04:43:57;;;;;;;10.02;9.73;;;14.40;99.90;;;;;;5043735;28;20267;-85
2023/05/30 04:46:27;;;;;;;10.30;10.00;;;14.40;99.90;;;;;;5042793;28;20231;-86
2023/05/30 04:48:58;;;;;;;10.20;9.90;;;14.40;99.90;;;;;;5043378;28;20306;-86
2023/05/30 04:54:09;;;;;;;10.07;9.77;;;14.50;99.90;;;;;;5041764;28;20251;-88
2023/05/30 04:56:48;;;;;;;10.05;9.75;;;14.50;99.90;;;;;;5044755;28;20227;-87
2023/05/30 04:59:18;;;;;;;9.80;9.50;;;14.60;99.90;;;;;;5043825;28;20211;-86
2023/05/30 05:01:48;;;;;;;9.70;9.40;;;14.70;99.90;;;;;;5042932;28;20337;-86
2023/05/30 05:07:24;;;;;;;10.02;9.73;;;14.90;99.90;;;;;;5035753;28;20275;-89
2023/05/30 05:13:34;;;;;;;9.93;9.63;;;15.00;99.90;;;;;;5038450;28;20281;-89
2023/05/30 05:16:22;;;;;;;10.35;10.05;;;15.10;99.90;;;;;;5041327;28;21063;-89
2023/05/30 05:21:53;;;;;;;9.50;9.20;;;15.20;99.90;;;;;;5040752;28;20250;-88
2023/05/30 05:24:50;;;;;;;;;;;;;;;;;;;;;
2023/05/30 05:27:38;;;;;;;9.50;9.20;;;15.30;99.90;;;;;;5034255;28;20239;-89
2023/05/30 05:33:42;;;;;;;9.57;9.27;;;15.50;99.90;;;;;;5021780;28;20253;-89
2023/05/30 05:36:42;;;;;;;10.10;9.80;;;15.60;99.90;;;;;;5052365;28;20279;-86
2023/05/30 05:42:05;;;;;;;10.00;9.70;;;15.60;99.90;;;;;;5059493;28;20274;-86
2023/05/30 05:44:57;;;;;;;10.05;9.75;;;15.60;99.90;;;;;;5059206;28;20353;-87
2023/05/30 05:56:36;;;;;;;10.10;9.80;;;15.90;99.90;;;;;;5039180;28;20312;-88
2023/05/30 06:02:19;;;;;;;9.85;9.55;;;16.00;99.90;;;;;;5039926;28;20241;-89
2023/05/30 06:10:31;;;;;;;10.10;9.80;;;16.20;99.90;;;;;;5038761;28;20219;-88
2023/05/30 06:15:48;;;;;;;10.00;9.70;;;16.50;99.90;;;;;;5037759;28;20215;-88
2023/05/30 06:18:27;;;;;;;10.07;9.77;;;16.60;99.90;;;;;;5040628;28;20231;-88
2023/05/30 06:21:15;;;;;;;9.90;9.60;;;16.50;99.90;;;;;;5040463;28;20230;-88
2023/05/30 06:23:53;;;;;;;9.70;9.40;;;16.70;99.90;;;;;;5039999;28;20322;-89
2023/05/30 06:26:34;;;;;;;10.00;9.70;;;16.70;99.90;;;;;;5040814;28;20283;-88
2023/05/30 06:29:21;;;;;;;10.02;9.73;;;16.80;99.90;;;;;;5040549;28;20219;-88
2023/05/30 06:35:37;;;;;;;10.07;9.77;;;17.10;99.90;;;;;;5047772;28;20218;-87
2023/05/30 06:45:01;;;;;;;;;;;;;;;;;;;;;
2023/05/30 06:50:28;;;;;;;9.88;9.57;;;17.70;99.90;;;;;;5040869;28;20223;-89
2023/05/30 06:53:28;;;;;;;9.75;9.45;;;17.80;99.90;;;;;;5042961;28;20230;-88
2023/05/30 06:56:20;;;;;;;10.10;9.80;;;17.90;99.90;;;;;;5040776;28;20243;-89
2023/05/30 06:59:17;;;;;;;9.93;9.63;;;17.90;99.90;;;;;;5061563;28;20215;-87
2023/05/30 07:02:25;;;;;;;9.85;9.55;;;18.10;99.90;;;;;;5056483;28;20287;-89
2023/05/30 07:05:02;;;;;;;10.10;9.80;;;18.10;99.90;;;;;;5044641;28;20231;-89
2023/05/30 07:08:28;;;;;;;9.80;9.50;;;18.30;99.90;;;;;;5044730;28;20278;-89
2023/05/30 07:11:14;;;;;;;10.10;9.80;;;18.40;99.90;;;;;;5035030;28;20258;-89
2023/05/30 07:13:59;;;;;;;9.90;9.60;;;18.60;99.90;;;;;;5054829;28;20302;-88
2023/05/30 07:19:40;;;;;;;9.30;9.00;;;18.60;99.90;;;;;;5055905;28;20704;-89
2023/05/30 07:22:19;;;;;;;9.52;9.23;;;18.70;99.90;;;;;;5044999;28;20251;-88
2023/05/30 07:27:56;;;;;;;;;;;;;;;;;;;;;
2023/05/30 07:30:45;;;;;;;9.80;9.50;;;19.00;99.90;;;;;;5048048;28;20212;-89
2023/05/30 07:39:27;;;;;;;10.40;10.10;;;19.10;99.90;;;;;;5038297;28;20223;-88
2023/05/30 07:42:33;;;;;;;10.30;10.00;;;19.20;99.90;;;;;;5043779;28;20238;-89
2023/05/30 07:45:36;;;;;;;9.93;9.63;;;19.40;99.90;;;;;;4923291;29;20239;-88
2023/05/30 07:54:32;;;;;;;9.73;9.43;;;19.40;99.90;;;;;;5042851;28;20234;-89
2023/05/30 07:57:20;;;;;;;9.85;9.55;;;19.60;99.90;;;;;;5042728;28;20235;-89
2023/05/30 08:00:16;;;;;;;9.80;9.50;;;19.70;99.90;;;;;;5042286;28;20235;-89
2023/05/30 08:10:04;;;;;;;10.20;9.90;;;20.30;99.90;;;;;;5044695;28;20232;-87
2023/05/30 08:15:27;;;;;;;9.80;9.50;;;20.50;99.90;;;;;;5060421;28;20208;-85
2023/05/30 08:20:57;;;;;;;10.00;9.70;;;20.70;99.90;;;;;;5042035;28;20223;-88
2023/05/30 08:24:12;;;;;;;10.18;9.88;;;20.80;99.90;;;;;;5041981;28;20245;-89
2023/05/30 08:27:20;;;;;;;9.90;9.60;;;21.00;99.90;;;;;;5035859;28;20227;-89
2023/05/30 08:30:00;;;;;;;10.10;9.80;;;21.10;99.90;;;;;;5042031;28;20234;-88
2023/05/30 08:47:21;;;;;;;9.98;9.68;;;21.50;99.90;;;;;;5054680;28;20216;-85
2023/05/30 08:53:11;;;;;;;9.90;9.60;;;21.80;99.90;;;;;;5036233;28;20261;-88
2023/05/30 08:56:11;;;;;;;10.10;9.80;;;22.00;99.90;;;;;;5041358;28;20239;-88
2023/05/30 08:58:58;;;;;;;10.23;9.93;;;22.20;99.90;;;;;;4960931;28;20230;-88
2023/05/30 09:01:49;;;;;;;10.38;10.07;;;22.40;99.90;;;;;;5023848;28;20227;-87
2023/05/30 09:04:49;;;;;;;10.30;10.00;;;22.70;99.90;;;;;;4983338;28;20272;-88
2023/05/30 09:07:55;;;;;;;10.90;10.60;;;22.70;99.90;;;;;;5041882;28;20239;-88
2023/05/30 09:10:35;;;;;;;9.95;9.65;;;22.90;99.90;;;;;;5040369;28;20252;-87
2023/05/30 09:13:43;;;;;;;9.90;9.60;;;23.20;99.90;;;;;;5040322;28;20242;-87
2023/05/30 09:16:30;;;;;;;9.68;9.38;;;23.30;99.90;;;;;;5041212;28;20234;-88
2023/05/30 09:19:37;;;;;;;9.82;9.52;;;23.60;99.90;;;;;;5041247;28;20230;-87
2023/05/30 09:25:31;;;;;;;;;;;;;;;;;;;;;
2023/05/30 09:28:15;;;;;;;9.90;9.60;;;23.70;99.90;;;;;;5041599;28;20223;-89
2023/05/30 09:34:03;;;;;;;9.90;9.60;;;23.90;99.90;;;;;;5040052;28;20235;-89
2023/05/30 09:37:19;;;;;;;;;;;;;;;;;;;;;
2023/05/30 09:43:43;;;;;;;9.90;9.60;;;23.80;99.90;;;;;;5043573;28;20244;-89
2023/05/30 09:46:31;;;;;;;9.63;9.32;;;23.90;99.90;;;;;;5043923;28;20238;-89
2023/05/30 09:49:21;;;;;;;9.77;9.48;;;23.70;99.90;;;;;;5041269;28;20310;-89
2023/05/30 09:52:17;;;;;;;9.85;9.55;;;23.80;99.90;;;;;;5041144;28;20223;-89
2023/05/30 09:54:52;;;;;;;10.00;9.70;;;24.10;99.90;;;;;;5029456;28;20290;-89
2023/05/30 09:57:43;;;;;;;9.85;9.55;;;23.90;99.90;;;;;;5041286;28;20243;-89
2023/05/30 10:00:34;;;;;;;9.88;9.57;;;23.70;99.90;;;;;;5040266;28;20223;-88
2023/05/30 10:03:10;;;;;;;10.05;9.75;;;24.00;99.90;;;;;;5040412;28;20239;-89
2023/05/30 10:06:02;;;;;;;9.95;9.65;;;24.40;99.90;;;;;;5040874;28;20262;-89
2023/05/30 10:09:16;;;;;;;9.98;9.68;;;24.70;99.90;;;;;;5053197;28;20306;-86
2023/05/30 10:12:03;;;;;;;9.95;9.65;;;24.50;99.90;;;;;;5059024;28;20250;-88
2023/05/30 10:14:43;;;;;;;9.90;9.60;;;24.70;99.90;;;;;;5041343;28;20244;-89
2023/05/30 10:23:53;;;;;;;9.98;9.68;;;24.80;99.90;;;;;;5040901;28;20274;-89
2023/05/30 10:26:46;;;;;;;10.10;9.80;;;25.00;99.90;;;;;;5044404;28;20223;-89
2023/05/30 10:29:46;;;;;;;10.00;9.70;;;25.00;99.90;;;;;;5044511;28;20239;-89
2023/05/30 10:35:23;;;;;;;10.02;9.73;;;25.60;99.90;;;;;;5042597;28;20223;-88
2023/05/30 10:38:15;;;;;;;10.20;9.90;;;25.40;99.90;;;;;;5059610;28;20268;-85
2023/05/30 10:44:09;;;;;;;9.77;9.48;;;25.60;99.90;;;;;;5052361;28;20231;-88
2023/05/30 10:47:02;;;;;;;9.70;9.40;;;26.00;99.90;;;;;;5044065;28;20250;-89
2023/05/30 10:49:37;;;;;;;9.55;9.25;;;26.10;99.90;;;;;;5044794;28;20231;-89
2023/05/30 10:52:17;;;;;;;9.98;9.68;;;26.10;99.90;;;;;;5061296;28;20283;-85
2023/05/30 10:54:51;;;;;;;9.90;9.60;;;26.20;99.90;;;;;;5061463;28;20287;-86
2023/05/30 10:57:32;;;;;;;10.25;9.95;;;26.30;99.90;;;;;;5058704;28;20306;-88
2023/05/30 11:00:23;;;;;;;10.23;9.93;;;26.30;99.90;;;;;;5044599;28;20278;-89
2023/05/30 11:05:22;;;;;;;10.10;9.80;;;26.60;99.90;;;;;;5043169;28;20235;-87
2023/05/30 11:07:51;;;;;;;9.80;9.50;;;26.60;99.90;;;;;;5045010;28;20224;-87
2023/05/30 11:10:31;;;;;;;9.98;9.68;;;26.80;99.90;;;;;;5044826;28;20285;-86
2023/05/30 11:13:10;;;;;;;9.98;9.68;;;26.80;99.90;;;;;;5047640;28;20239;-86
2023/05/30 11:15:46;;;;;;;10.05;9.75;;;26.40;99.90;;;;;;5049097;28;20258;-86
2023/05/30 11:21:04;;;;;;;9.88;9.57;;;26.60;99.90;;;;;;5045457;28;20223;-86
2023/05/30 11:23:31;;;;;;;10.20;9.90;;;26.80;99.90;;;;;;5045400;28;20246;-86
2023/05/30 11:26:02;;;;;;;10.07;9.77;;;27.00;99.90;;;;;;5044978;28;20235;-86
2023/05/30 11:28:40;;;;;;;9.48;9.18;;;27.30;99.90;;;;;;5045185;28;20231;-86
2023/05/30 11:31:28;;;;;;;9.68;9.38;;;27.60;99.90;;;;;;5045318;28;20239;-86
2023/05/30 11:33:55;;;;;;;9.38;9.07;;;27.80;99.90;;;;;;5044804;28;20239;-86
2023/05/30 11:36:25;;;;;;;9.60;9.30;;;27.70;99.90;;;;;;5045410;28;20235;-87
2023/05/30 11:38:55;;;;;;;9.75;9.45;;;27.30;99.90;;;;;;5044844;28;20232;-86
2023/05/30 11:41:26;;;;;;;9.13;8.93;;;27.00;99.90;;;;;;5044341;28;20299;-86
2023/05/30 11:43:54;;;;;;;9.75;9.45;;;26.40;99.90;;;;;;5044515;28;20242;-86
2023/05/30 11:46:26;;;;;;;9.77;9.48;;;26.50;99.90;;;;;;5044825;28;20243;-86
2023/05/30 11:49:03;;;;;;;9.98;9.68;;;26.60;99.90;;;;;;5044482;28;20227;-86
2023/05/30 11:51:31;;;;;;;9.95;9.65;;;26.90;99.90;;;;;;5044521;28;20219;-86
2023/05/30 11:54:00;;;;;;;10.05;9.75;;;27.00;99.90;;;;;;5044317;28;20242;-87
2023/05/30 11:56:30;;;;;;;9.93;9.63;;;27.10;99.90;;;;;;5045643;28;20231;-86
2023/05/30 11:58:59;;;;;;;9.82;9.52;;;27.30;99.90;;;;;;5050662;28;20224;-86
2023/05/30 12:01:39;;;;;;;9.73;9.43;;;27.50;99.90;;;;;;5049247;28;20223;-86
2023/05/30 12:04:07;;;;;;;9.90;9.60;;;27.50;99.90;;;;;;5044153;28;20293;-87
2023/05/30 12:06:36;;;;;;;10.10;9.80;;;27.00;99.90;;;;;;5045536;28;20290;-87
2023/05/30 12:09:06;;;;;;;9.93;9.63;;;27.00;99.90;;;;;;5045617;28;20231;-86
2023/05/30 12:11:35;;;;;;;9.70;9.40;;;27.00;99.90;;;;;;5045155;28;20229;-87
2023/05/30 12:14:08;;;;;;;9.60;9.30;;;27.50;99.90;;;;;;5044618;28;20235;-86
2023/05/30 12:16:38;;;;;;;9.82;9.52;;;28.00;99.90;;;;;;5044635;28;20266;-86
2023/05/30 12:19:06;;;;;;;9.70;9.40;;;28.40;99.90;;;;;;5045132;28;20254;-86
2023/05/30 12:21:36;;;;;;;9.50;9.20;;;28.60;99.90;;;;;;5045226;28;20231;-87
2023/05/30 12:24:14;;;;;;;9.68;9.38;;;28.50;99.90;;;;;;5043946;28;20415;-86
2023/05/30 12:26:51;;;;;;;9.55;9.25;;;28.50;99.90;;;;;;5045044;28;20392;-87
2023/05/30 12:29:22;;;;;;;9.75;9.45;;;28.40;99.90;;;;;;5045123;28;20227;-87
2023/05/30 12:32:00;;;;;;;9.60;9.30;;;28.60;99.90;;;;;;5054328;28;20220;-86
2023/05/30 12:34:47;;;;;;;9.93;9.63;;;28.50;99.90;;;;;;5051751;28;20318;-86
2023/05/30 12:40:04;;;;;;;9.60;9.30;;;29.40;99.90;;;;;;5047506;28;20411;-87
2023/05/30 12:42:33;;;;;;;9.60;9.30;;;29.40;99.90;;;;;;5046353;28;20231;-86
2023/05/30 12:45:04;;;;;;;9.68;9.38;;;29.00;99.90;;;;;;5045304;28;20235;-86
2023/05/30 12:47:33;;;;;;;9.75;9.45;;;28.20;99.90;;;;;;5043564;28;20261;-87
2023/05/30 12:50:02;;;;;;;9.85;9.55;;;28.20;99.90;;;;;;5044761;28;20251;-86
2023/05/30 12:52:30;;;;;;;9.85;9.55;;;28.30;99.90;;;;;;5045642;28;20212;-86
2023/05/30 12:54:59;;;;;;;9.70;9.40;;;28.50;99.90;;;;;;5044060;28;20281;-86
2023/05/30 12:57:28;;;;;;;9.50;9.20;;;28.80;99.90;;;;;;5043682;28;20291;-86
2023/05/30 12:59:57;;;;;;;9.73;9.43;;;29.00;99.90;;;;;;5043339;28;20240;-86
2023/05/30 13:02:27;;;;;;;9.25;9.00;;;29.40;99.90;;;;;;5043213;28;20234;-87
2023/05/30 13:05:06;;;;;;;9.60;9.30;;;29.40;99.90;;;;;;5043309;28;20245;-86
2023/05/30 13:07:35;;;;;;;9.52;9.23;;;28.90;99.90;;;;;;5044083;28;20305;-86
2023/05/30 13:10:04;;;;;;;9.40;9.10;;;28.90;99.90;;;;;;5043207;28;20216;-86
2023/05/30 13:12:37;;;;;;;9.35;9.05;;;28.90;99.90;;;;;;5043706;28;20258;-87
2023/05/30 13:15:06;;;;;;;9.40;9.10;;;29.20;99.90;;;;;;5044399;28;20239;-87
2023/05/30 13:17:35;;;;;;;9.35;9.05;;;29.40;98.90;;;;;;5045102;28;20295;-87
2023/05/30 13:20:13;;;;;;;9.27;8.98;;;29.40;98.70;;;;;;5045465;28;20291;-87
2023/05/30 13:22:41;;;;;;;9.50;9.20;;;29.60;99.90;;;;;;5056828;28;20284;-85
2023/05/30 13:25:10;;;;;;;9.50;9.20;;;30.00;99.90;;;;;;5059764;28;20227;-86
2023/05/30 13:27:39;;;;;;;9.70;9.40;;;30.40;99.90;;;;;;5053980;28;20223;-86
2023/05/30 13:30:10;;;;;;;10.00;9.70;;;30.80;99.90;;;;;;5043769;28;20231;-86
2023/05/30 13:32:38;;;;;;;9.98;9.68;;;30.70;99.90;;;;;;5043589;28;20293;-87
2023/05/30 13:35:18;;;;;;;9.68;9.38;;;30.40;96.50;;;;;;5044049;28;20278;-87
2023/05/30 13:37:46;;;;;;;9.90;9.60;;;30.50;98.30;;;;;;5044592;28;20223;-86
2023/05/30 13:40:15;;;;;;;9.77;9.48;;;30.70;99.40;;;;;;5043541;28;20241;-86
2023/05/30 13:42:45;;;;;;;10.15;9.85;;;30.60;96.60;;;;;;5042555;28;20243;-86
2023/05/30 13:45:15;;;;;;;10.10;9.80;;;30.20;96.80;;;;;;5043467;28;20235;-87
2023/05/30 13:47:43;;;;;;;10.18;9.88;;;29.90;95.60;;;;;;5045629;28;20255;-87
2023/05/30 13:50:22;;;;;;;10.20;9.90;;;30.00;96.00;;;;;;5053882;28;20224;-86
2023/05/30 13:52:51;;;;;;;10.30;10.00;;;30.30;94.70;;;;;;5047354;28;20245;-86
2023/05/30 13:55:21;;;;;;;10.10;9.80;;;30.40;95.20;;;;;;5044076;28;20227;-85
2023/05/30 13:57:51;;;;;;;9.80;9.50;;;30.50;92.40;;;;;;5046044;28;20227;-86
2023/05/30 14:00:19;;;;;;;9.82;9.52;;;30.40;95.30;;;;;;5048714;28;20234;-86
2023/05/30 14:02:48;;;;;;;9.90;9.60;;;30.80;94.90;;;;;;5050835;28;20215;-86
2023/05/30 14:05:29;;;;;;;9.90;9.60;;;30.70;95.10;;;;;;5049650;28;20238;-85
2023/05/30 14:07:57;;;;;;;9.90;9.60;;;30.80;95.50;;;;;;5059047;28;20215;-85
2023/05/30 14:10:26;;;;;;;9.98;9.68;;;30.70;97.60;;;;;;5061219;28;20216;-86
2023/05/30 14:12:57;;;;;;;10.10;9.80;;;30.80;94.60;;;;;;5052621;28;20254;-85
2023/05/30 14:15:30;;;;;;;10.30;10.00;;;31.10;92.90;;;;;;5048476;28;20215;-86
2023/05/30 14:17:58;;;;;;;9.90;9.60;;;31.10;93.20;;;;;;5048903;28;20247;-86
2023/05/30 14:20:35;;;;;;;10.27;9.98;;;31.10;91.20;;;;;;5052681;28;20295;-87
2023/05/30 14:23:04;;;;;;;10.70;10.40;;;31.20;92.20;;;;;;5053900;28;20256;-86
2023/05/30 14:25:33;;;;;;;10.52;10.23;;;31.10;91.30;;;;;;5061432;28;20242;-85
2023/05/30 14:28:03;;;;;;;10.40;10.10;;;31.10;91.80;;;;;;5056961;28;20254;-86
2023/05/30 14:30:34;;;;;;;10.30;10.00;;;31.30;93.00;;;;;;5057371;28;20251;-86
2023/05/30 14:33:02;;;;;;;10.45;10.15;;;31.40;90.40;;;;;;5057061;28;20220;-86
2023/05/30 14:35:41;;;;;;;10.18;9.88;;;31.40;91.10;;;;;;5057001;28;20231;-86
2023/05/30 14:38:10;;;;;;;9.95;9.65;;;31.20;91.40;;;;;;5056383;28;20235;-86
2023/05/30 14:40:57;;;;;;;9.90;9.60;;;31.20;90.40;;;;;;5057548;28;20290;-86
2023/05/30 14:43:26;;;;;;;9.90;9.60;;;31.30;91.50;;;;;;5056859;28;20245;-87
2023/05/30 14:45:57;;;;;;;9.90;9.60;;;31.40;90.10;;;;;;5057320;28;20250;-86
2023/05/30 14:48:25;;;;;;;10.07;9.77;;;31.40;90.90;;;;;;5057411;28;20235;-86
2023/05/30 14:50:57;;;;;;;9.98;9.68;;;31.20;90.30;;;;;;5054647;28;20224;-86
2023/05/30 14:53:25;;;;;;;10.30;10.00;;;31.40;91.50;;;;;;5058990;28;20234;-86
2023/05/30 14:55:53;;;;;;;10.48;10.18;;;31.30;91.40;;;;;;5058519;28;20227;-87
2023/05/30 14:58:22;;;;;;;10.07;9.77;;;31.40;92.10;;;;;;5058581;28;20227;-86
2023/05/30 15:00:51;;;;;;;10.10;9.80;;;31.40;91.90;;;;;;5057285;28;20236;-87
2023/05/30 15:03:21;;;;;;;10.05;9.75;;;31.30;91.90;;;;;;5057697;28;20231;-87
2023/05/30 15:05:51;;;;;;;10.35;10.05;;;31.40;91.40;;;;;;5057523;28;20239;-86
2023/05/30 15:08:23;;;;;;;10.00;9.70;;;31.40;90.90;;;;;;5050002;28;20291;-88
2023/05/30 15:10:50;;;;;;;10.00;9.70;;;31.30;91.50;;;;;;5045402;28;20223;-87
2023/05/30 15:13:20;;;;;;;10.10;9.80;;;31.30;91.60;;;;;;5045281;28;20236;-87
2023/05/30 15:15:50;;;;;;;9.85;9.55;;;31.10;92.10;;;;;;5045410;28;20319;-88
2023/05/30 15:18:18;;;;;;;9.60;9.30;;;30.90;91.20;;;;;;5045662;28;20227;-87
2023/05/30 15:20:47;;;;;;;9.93;9.63;;;30.90;91.10;;;;;;5046974;28;20235;-88
2023/05/30 15:23:17;;;;;;;9.57;9.27;;;31.00;91.90;;;;;;5046845;28;20297;-87
2023/05/30 15:25:57;;;;;;;9.70;9.40;;;31.00;92.40;;;;;;5047265;28;20266;-87
2023/05/30 15:28:25;;;;;;;9.82;9.52;;;31.20;91.30;;;;;;5046452;28;20231;-87
2023/05/30 15:30:53;;;;;;;9.70;9.40;;;31.10;91.10;;;;;;5046309;28;20235;-87
2023/05/30 15:33:25;;;;;;;9.90;9.60;;;30.90;90.90;;;;;;5045739;28;20231;-87
2023/05/30 15:35:53;;;;;;;9.80;9.50;;;30.80;92.10;;;;;;5045555;28;20264;-86
2023/05/30 15:38:23;;;;;;;9.75;9.45;;;30.60;91.50;;;;;;5045682;28;20236;-87
2023/05/30 15:40:55;;;;;;;10.30;10.00;;;30.50;92.00;;;;;;5045755;28;20235;-87